Time;durP1;ratioP1;P1;durP2;ratioP2;P2;SDS_P1;SDS_P2;PMS_P1;PMS_P2;Temp;Humidity;BMP_temperature;BMP_pressure;BME280_temperature;BME280_humidity;BME280_pressure;Samples;Min_cycle;Max_cycle;Signal;HPM_P1;HPM_P2
2024/03/29 00:01:29;;;;;;;6.87;3.03;;;;;;;9.06;100.00;98985.97;5056910;56;1136357;-82
2024/03/29 00:06:34;;;;;;;14.40;3.67;;;;;;;9.02;100.00;98997.77;5124363;56;1136654;-82
2024/03/29 00:11:40;;;;;;;9.27;3.37;;;;;;;9.01;100.00;98997.47;5122862;56;1138805;-81
2024/03/29 00:16:46;;;;;;;11.23;4.37;;;;;;;8.95;100.00;99003.31;5132700;55;1136574;-82
2024/03/29 00:21:51;;;;;;;6.30;2.63;;;;;;;8.90;100.00;99020.88;5132956;55;1136631;-83
2024/03/29 00:26:57;;;;;;;12.40;4.47;;;;;;;8.75;100.00;99038.96;5152916;55;1136250;-82
2024/03/29 00:32:03;;;;;;;5.90;2.73;;;;;;;8.75;100.00;99038.96;5132935;55;1144170;-82
2024/03/29 00:37:08;;;;;;;8.48;3.25;;;;;;;8.68;100.00;99055.02;5131967;55;1136734;-82
2024/03/29 00:42:15;;;;;;;7.67;2.53;;;;;;;8.57;100.00;99064.39;5067868;56;1134236;-82
2024/03/29 00:47:21;;;;;;;6.33;2.60;;;;;;;8.50;100.00;99079.61;5076692;56;1136649;-83
2024/03/29 00:52:27;;;;;;;2.30;1.60;;;;;;;8.42;100.00;99084.24;5043301;56;1136392;-82
2024/03/29 00:57:32;;;;;;;3.53;2.00;;;;;;;8.37;100.00;99097.02;5003653;57;1136507;-83
2024/03/29 01:02:38;;;;;;;4.37;2.67;;;;;;;8.32;100.00;99111.92;5057796;57;1136798;-83
2024/03/29 01:07:44;;;;;;;4.27;1.80;;;;;;;8.25;100.00;99119.19;5083147;56;1136611;-82
2024/03/29 01:12:49;;;;;;;7.07;2.57;;;;;;;8.19;100.00;99138.16;5037133;56;1134352;-83
2024/03/29 01:17:55;;;;;;;5.00;2.10;;;;;;;8.17;100.00;99150.62;5227357;55;1136627;-82
2024/03/29 01:23:01;;;;;;;3.70;2.37;;;;;;;8.12;100.00;99155.81;5191670;55;1140629;-82
2024/03/29 01:28:07;;;;;;;3.37;2.03;;;;;;;8.10;100.00;99168.76;5211413;55;1142913;-83
2024/03/29 01:33:13;;;;;;;13.65;2.58;;;;;;;8.11;100.00;99172.58;5210554;55;1136886;-82
2024/03/29 01:38:18;;;;;;;88.40;24.15;;;;;;;8.12;100.00;99185.27;5153276;56;1138572;-82
2024/03/29 01:43:24;;;;;;;19.93;5.23;;;;;;;8.13;100.00;99188.24;5131599;55;1140617;-82
2024/03/29 01:48:30;;;;;;;9.30;3.13;;;;;;;8.15;100.00;99195.53;5074467;55;1138772;-82
2024/03/29 01:53:36;;;;;;;4.57;2.90;;;;;;;8.15;100.00;99199.96;5140499;56;1136369;-82
2024/03/29 01:58:42;;;;;;;3.53;1.80;;;;;;;8.15;100.00;99208.70;5133655;56;1134412;-82
2024/03/29 02:03:48;;;;;;;2.03;1.60;;;;;;;8.18;100.00;99210.23;5115047;56;1136527;-82
2024/03/29 02:08:54;;;;;;;4.97;2.10;;;;;;;8.20;100.00;99225.42;5121641;55;1136364;-82
2024/03/29 02:14:01;;;;;;;2.77;1.42;;;;;;;8.19;100.00;99223.27;5149650;55;1134127;-82
2024/03/29 02:19:07;;;;;;;3.80;1.82;;;;;;;8.25;100.00;99232.44;5132558;55;1136470;-82
2024/03/29 02:24:17;;;;;;;2.33;1.42;;;;;;;8.24;100.00;99241.31;5132927;55;1136764;-82
2024/03/29 02:29:22;;;;;;;2.77;1.53;;;;;;;8.23;100.00;99250.17;5150633;55;1134664;-82
2024/03/29 02:34:28;;;;;;;3.63;1.43;;;;;;;8.28;100.00;99255.84;5120967;55;1136396;-82
2024/03/29 02:39:34;;;;;;;1.37;1.13;;;;;;;8.29;100.00;99255.72;5054491;57;1136624;-82
2024/03/29 02:44:39;;;;;;;1.03;1.03;;;;;;;8.28;100.00;99251.41;5090189;56;1137206;-82
2024/03/29 02:49:45;;;;;;;1.07;0.97;;;;;;;8.21;100.00;99277.13;5164994;55;1136482;-82
2024/03/29 02:54:51;;;;;;;2.40;1.30;;;;;;;8.08;100.00;99274.25;5136729;55;1136412;-82
2024/03/29 02:59:56;;;;;;;1.60;1.20;;;;;;;8.02;100.00;99264.72;5168228;55;1136443;-82
2024/03/29 03:05:02;;;;;;;1.07;0.98;;;;;;;7.94;100.00;99277.73;5186387;56;1136808;-82
2024/03/29 03:15:32;;;;;;;1.10;0.70;;;;;;;7.87;100.00;99284.48;5184771;56;1136343;-82
2024/03/29 03:20:38;;;;;;;0.57;0.57;;;;;;;7.81;100.00;99284.99;5205053;56;1136730;-83
2024/03/29 03:25:43;;;;;;;0.68;0.62;;;;;;;7.76;100.00;99294.63;5182647;56;1136677;-82
2024/03/29 03:30:51;;;;;;;1.67;0.80;;;;;;;7.73;100.00;99297.51;5182404;56;1136308;-83
2024/03/29 03:35:56;;;;;;;2.20;1.47;;;;;;;7.72;100.00;99295.84;5205071;56;1136878;-82
2024/03/29 03:41:03;;;;;;;0.70;0.57;;;;;;;7.70;100.00;99293.34;5168259;55;1136460;-82
2024/03/29 03:46:09;;;;;;;0.77;0.60;;;;;;;7.70;100.00;99289.39;5168472;56;1136719;-83
2024/03/29 03:51:14;;;;;;;0.93;0.55;;;;;;;7.63;100.00;99284.31;5181227;56;1134256;-82
2024/03/29 03:56:20;;;;;;;3.50;1.37;;;;;;;7.62;100.00;99295.80;5101532;56;1136727;-83
2024/03/29 04:01:26;;;;;;;1.07;1.07;;;;;;;7.54;100.00;99290.34;4881064;57;1136574;-82
2024/03/29 04:06:32;;;;;;;0.70;0.70;;;;;;;7.50;100.00;99282.34;4996841;57;1134741;-82
2024/03/29 04:11:37;;;;;;;2.83;0.70;;;;;;;7.45;100.00;99290.29;5073737;56;1136501;-83
2024/03/29 04:16:43;;;;;;;2.60;0.80;;;;;;;7.48;100.00;99297.93;5060832;56;1136842;-79
2024/03/29 04:21:49;;;;;;;0.73;0.70;;;;;;;7.42;100.00;99304.53;5091299;57;1136674;-78
2024/03/29 04:26:55;;;;;;;0.97;0.87;;;;;;;7.34;100.00;99316.98;5117390;56;1134414;-74
2024/03/29 04:32:00;;;;;;;2.23;1.07;;;;;;;7.29;100.00;99325.77;5098964;57;1136662;-74
2024/03/29 04:37:07;;;;;;;1.13;0.97;;;;;;;7.28;100.00;99330.67;5098398;57;1136456;-73
2024/03/29 04:42:14;;;;;;;1.32;1.10;;;;;;;7.23;100.00;99338.58;5012538;57;1136691;-73
2024/03/29 04:47:20;;;;;;;1.32;1.20;;;;;;;7.17;100.00;99358.34;5035128;57;1134439;-73
2024/03/29 04:52:26;;;;;;;1.97;1.20;;;;;;;7.11;100.00;99346.16;5030967;55;1136785;-73
2024/03/29 04:57:32;;;;;;;1.43;0.87;;;;;;;7.09;100.00;99341.50;5098609;56;1136627;-74
2024/03/29 05:02:37;;;;;;;1.80;1.10;;;;;;;7.02;100.00;99334.14;5113556;55;1136370;-73
2024/03/29 05:07:43;;;;;;;3.40;1.07;;;;;;;7.00;100.00;99333.91;5133242;55;1134609;-73
2024/03/29 05:12:49;;;;;;;2.43;1.50;;;;;;;6.96;100.00;99343.83;5133287;55;1134366;-73
2024/03/29 05:17:55;;;;;;;5.70;1.90;;;;;;;6.95;100.00;99343.95;5152488;55;1136603;-73
2024/03/29 05:23:01;;;;;;;6.53;2.30;;;;;;;6.97;100.00;99347.29;5132870;55;1136594;-73
2024/03/29 05:28:07;;;;;;;2.87;1.40;;;;;;;7.00;100.00;99360.19;5133144;55;1134847;-74
2024/03/29 05:33:13;;;;;;;3.26;1.34;;;;;;;7.01;100.00;99360.55;5133436;55;1134790;-73
2024/03/29 05:38:18;;;;;;;4.22;1.50;;;;;;;7.02;100.00;99363.05;5153180;55;1136418;-73
2024/03/29 05:43:24;;;;;;;2.80;1.53;;;;;;;7.07;100.00;99383.69;5128048;56;1136469;-73
2024/03/29 05:48:31;;;;;;;5.40;1.90;;;;;;;7.11;100.00;99399.58;5135767;56;1134725;-74
2024/03/29 05:53:36;;;;;;;1.50;1.40;;;;;;;7.17;100.00;99387.27;5157925;56;1136278;-74
2024/03/29 05:58:43;;;;;;;3.22;2.10;;;;;;;7.33;100.00;99382.38;5137907;56;1136390;-74
2024/03/29 06:03:51;;;;;;;1.50;1.00;;;;;;;7.55;100.00;99376.20;5137980;56;1136222;-73
2024/03/29 06:08:56;;;;;;;1.53;1.17;;;;;;;7.78;100.00;99370.81;5158155;56;1136231;-73
2024/03/29 06:19:08;;;;;;;1.53;1.07;;;;;;;8.24;100.00;99361.98;5137863;56;1136668;-74
2024/03/29 06:24:14;;;;;;;4.17;1.43;;;;;;;8.41;100.00;99349.50;5138436;56;1136335;-73
2024/03/29 06:29:20;;;;;;;1.65;1.55;;;;;;;8.63;100.00;99330.02;5105644;56;1136459;-74
2024/03/29 06:34:26;;;;;;;3.30;1.70;;;;;;;8.79;100.00;99345.31;5026119;55;1136901;-73
2024/03/29 06:39:32;;;;;;;3.60;1.50;;;;;;;8.92;100.00;99356.43;5058736;55;1136402;-73
2024/03/29 06:44:38;;;;;;;2.03;1.30;;;;;;;9.02;100.00;99384.12;5123107;54;1136725;-73
2024/03/29 06:49:43;;;;;;;3.73;1.53;;;;;;;9.10;100.00;99397.47;5300427;54;1136760;-73
2024/03/29 06:54:49;;;;;;;2.40;1.30;;;;;;;9.17;100.00;99412.59;5300454;54;1136411;-73
2024/03/29 06:59:55;;;;;;;4.87;1.37;;;;;;;9.30;100.00;99398.33;5321261;54;1136240;-73
2024/03/29 07:05:07;;;;;;;18.63;6.87;;;;;;;9.39;100.00;99397.00;5300497;54;1136666;-72
2024/03/29 07:10:08;;;;;;;2.57;1.90;;;;;;;9.54;100.00;99405.34;5299589;54;1138977;-74
2024/03/29 07:15:14;;;;;;;5.37;1.60;;;;;;;9.74;100.00;99410.12;5301197;54;1136828;-73
2024/03/29 07:20:20;;;;;;;2.92;1.30;;;;;;;9.91;100.00;99419.97;5322497;54;1136696;-73
2024/03/29 07:25:26;;;;;;;8.50;2.53;;;;;;;9.97;100.00;99408.82;5302132;54;1136537;-73
2024/03/29 07:30:32;;;;;;;20.30;6.13;;;;;;;10.01;100.00;99394.36;5302075;54;1136744;-73
2024/03/29 07:35:41;;;;;;;3.57;1.30;;;;;;;10.26;100.00;99421.16;5322834;54;1140675;-73
2024/03/29 07:40:45;;;;;;;16.53;4.70;;;;;;;10.39;100.00;99434.91;5300050;54;1169991;-73
2024/03/29 07:45:51;;;;;;;2.75;1.40;;;;;;;10.43;100.00;99442.88;5301356;54;1140872;-73
2024/03/29 07:50:57;;;;;;;2.97;1.87;;;;;;;10.54;100.00;99444.84;5322264;54;1138521;-73
2024/03/29 07:56:03;;;;;;;15.93;4.57;;;;;;;10.65;100.00;99437.23;5302073;54;1138374;-73
2024/03/29 08:01:08;;;;;;;12.53;3.53;;;;;;;10.82;100.00;99431.17;5302229;54;1140671;-74
2024/03/29 08:06:17;;;;;;;11.68;3.77;;;;;;;10.89;100.00;99428.27;5301779;54;1141038;-73
2024/03/29 08:11:22;;;;;;;3.92;2.00;;;;;;;11.05;100.00;99446.63;5322111;54;1147752;-73
2024/03/29 08:16:28;;;;;;;11.93;3.47;;;;;;;11.18;100.00;99447.09;5300615;54;1201336;-73
2024/03/29 08:21:33;;;;;;;10.33;3.63;;;;;;;11.38;100.00;99455.75;5239666;54;1140847;-73
2024/03/29 08:26:39;;;;;;;15.80;4.40;;;;;;;11.63;100.00;99455.83;5322708;54;1140674;-74
2024/03/29 08:31:45;;;;;;;5.13;2.57;;;;;;;11.81;100.00;99452.37;5301521;54;1140936;-74
2024/03/29 08:36:50;;;;;;;7.27;3.27;;;;;;;12.03;100.00;99448.42;5291888;54;1138626;-74
2024/03/29 08:41:56;;;;;;;10.63;3.80;;;;;;;12.11;97.65;99467.02;5232026;55;1138509;-73
2024/03/29 08:47:02;;;;;;;30.83;6.70;;;;;;;12.21;97.24;99471.75;5210240;55;1242736;-73
2024/03/29 08:52:09;;;;;;;5.93;2.30;;;;;;;12.40;98.21;99479.48;5242538;54;1138970;-74
2024/03/29 08:57:14;;;;;;;8.93;2.17;;;;;;;12.48;93.94;99470.77;5284252;54;1235556;-74
2024/03/29 09:02:20;;;;;;;10.15;3.02;;;;;;;12.60;97.56;99470.34;5321036;54;1242745;-74
2024/03/29 09:07:26;;;;;;;11.68;2.12;;;;;;;12.69;96.52;99475.17;5301348;54;1179520;-74
2024/03/29 09:12:31;;;;;;;16.83;5.13;;;;;;;12.83;94.94;99470.60;5298146;54;1245617;-74
2024/03/29 09:17:37;;;;;;;9.43;2.60;;;;;;;12.90;90.79;99482.26;5319982;54;1256208;-74
2024/03/29 09:22:43;;;;;;;3.33;1.40;;;;;;;12.91;89.48;99491.05;5298066;54;1230527;-75
2024/03/29 09:27:50;;;;;;;5.30;1.57;;;;;;;12.93;89.95;99486.42;5297520;54;1137026;-75
2024/03/29 09:32:56;;;;;;;9.93;1.80;;;;;;;12.99;87.19;99491.91;5298468;54;1249743;-74
2024/03/29 09:38:03;;;;;;;4.67;2.03;;;;;;;13.13;84.18;99502.45;5191584;55;1243778;-74
2024/03/29 09:43:12;;;;;;;5.10;1.72;;;;;;;13.21;83.62;99497.18;5302125;54;1160208;-76
2024/03/29 09:48:18;;;;;;;6.60;2.47;;;;;;;13.34;80.26;99503.36;5278501;54;1249739;-74
2024/03/29 09:53:25;;;;;;;8.53;2.72;;;;;;;13.45;83.60;99494.25;5320804;54;1175502;-74
2024/03/29 09:58:32;;;;;;;4.10;1.70;;;;;;;13.59;79.31;99509.09;5298326;54;1242862;-74
2024/03/29 10:03:45;;;;;;;11.60;3.07;;;;;;;13.76;78.20;99508.59;5218765;55;1239317;-75
2024/03/29 10:08:51;;;;;;;;;;;;;;;13.97;77.51;99485.53;5245315;55;1138381;-74
2024/03/29 10:13:56;;;;;;;9.57;1.50;;;;;;;14.21;77.07;99460.25;5247454;54;973887;-75
2024/03/29 10:19:02;;;;;;;3.43;1.17;;;;;;;14.52;78.82;99467.55;5298991;54;1170548;-75
2024/03/29 10:24:21;;;;;;;6.70;2.67;;;;;;;14.74;72.44;99490.79;5321422;54;1136444;-75
2024/03/29 10:29:29;;;;;;;6.33;1.37;;;;;;;14.95;71.98;99488.41;5297859;54;1136654;-74
2024/03/29 10:34:36;;;;;;;1.87;0.80;;;;;;;15.08;70.25;99479.86;5300683;54;1136534;-75
2024/03/29 10:39:44;;;;;;;6.87;1.67;;;;;;;15.22;67.06;99470.30;5269209;54;1136538;-74
2024/03/29 10:44:51;;;;;;;3.40;1.10;;;;;;;15.41;65.81;99472.54;5220585;55;1169187;-75
2024/03/29 10:49:58;;;;;;;4.07;1.30;;;;;;;15.60;62.47;99468.59;5220144;55;1180349;-74
2024/03/29 10:55:03;;;;;;;3.43;0.90;;;;;;;15.66;60.71;99470.06;5270333;54;1136697;-74
2024/03/29 11:00:18;;;;;;;2.00;1.30;;;;;;;15.72;59.16;99454.70;5209557;54;1188636;-74
2024/03/29 11:05:22;;;;;;;4.93;1.73;;;;;;;15.87;53.08;99463.27;5210604;55;1136765;-75
2024/03/29 11:10:32;;;;;;;3.45;1.12;;;;;;;15.80;50.34;99465.80;5249198;54;1136358;-75
2024/03/29 11:15:41;;;;;;;6.47;1.63;;;;;;;15.81;47.80;99466.13;5300103;54;1136774;-74
2024/03/29 11:20:54;;;;;;;6.97;0.70;;;;;;;15.94;52.44;99464.19;5300413;54;1136423;-75
2024/03/29 11:25:59;;;;;;;1.93;1.23;;;;;;;16.14;46.49;99469.36;5320947;54;1136441;-75
2024/03/29 11:31:10;;;;;;;2.33;1.17;;;;;;;16.42;48.19;99457.59;5300274;54;1136640;-74
2024/03/29 11:36:28;;;;;;;4.10;1.04;;;;;;;16.56;47.44;99451.43;5301184;54;1136297;-76
2024/03/29 11:41:33;;;;;;;4.20;1.23;;;;;;;16.66;44.06;99469.36;5210743;55;1136243;-75
2024/03/29 11:46:40;;;;;;;1.73;0.90;;;;;;;16.58;43.36;99441.91;5231433;55;1136815;-75
2024/03/29 11:51:47;;;;;;;5.10;1.83;;;;;;;16.85;42.36;99455.97;5231537;54;1136695;-75
2024/03/29 11:56:54;;;;;;;4.83;1.80;;;;;;;16.78;44.01;99447.06;5300614;54;1136261;-75
2024/03/29 12:01:59;;;;;;;3.00;1.04;;;;;;;16.68;44.36;99447.31;5321779;54;1136389;-75
2024/03/29 12:07:05;;;;;;;6.53;1.20;;;;;;;16.58;42.75;99445.91;5300877;54;1136238;-82
2024/03/29 12:12:11;;;;;;;2.90;0.80;;;;;;;16.56;44.43;99444.76;5321847;54;1136973;-80
2024/03/29 12:17:17;;;;;;;2.65;1.00;;;;;;;16.42;44.11;99441.07;5301031;54;1136582;-81
2024/03/29 12:22:23;;;;;;;3.75;1.42;;;;;;;16.24;45.28;99446.42;5321393;54;1136783;-82
2024/03/29 12:27:29;;;;;;;3.27;0.90;;;;;;;16.47;49.47;99427.19;5302377;54;1136462;-81
2024/03/29 12:32:35;;;;;;;1.70;0.90;;;;;;;16.47;49.47;99427.19;5302183;54;1136563;-82
2024/03/29 12:37:56;;;;;;;9.00;2.30;;;;;;;16.71;46.84;99434.11;5322515;54;1136545;-79
2024/03/29 12:43:08;;;;;;;2.80;1.77;;;;;;;16.81;47.53;99427.97;5300261;54;1136524;-79
2024/03/29 12:48:19;;;;;;;4.23;1.17;;;;;;;16.81;46.49;99420.79;5261224;54;1136661;-81
2024/03/29 12:53:25;;;;;;;4.97;0.82;;;;;;;16.91;46.21;99412.51;5260857;54;1136601;-83
2024/03/29 12:58:31;;;;;;;3.45;0.70;;;;;;;17.15;47.55;99406.83;5322458;54;1136445;-80
2024/03/29 13:03:38;;;;;;;3.33;1.10;;;;;;;17.35;45.36;99408.39;5240589;54;1136933;-82
2024/03/29 13:08:44;;;;;;;5.36;0.80;;;;;;;17.65;44.89;99415.81;5301617;54;1136827;-82
2024/03/29 13:13:49;;;;;;;2.77;0.70;;;;;;;17.75;43.75;99418.98;5310378;54;1136449;-81
2024/03/29 13:18:55;;;;;;;1.10;0.70;;;;;;;17.78;44.46;99411.09;5206313;54;1136581;-84
2024/03/29 13:24:01;;;;;;;3.07;0.90;;;;;;;17.83;43.95;99414.86;5199151;55;1136365;-85
2024/03/29 13:29:06;;;;;;;3.97;0.83;;;;;;;17.85;44.01;99416.00;5222463;54;1136222;-84
2024/03/29 13:34:12;;;;;;;2.53;1.40;;;;;;;17.88;41.40;99419.09;5301483;54;1136260;-80
2024/03/29 13:39:19;;;;;;;6.62;0.98;;;;;;;17.86;40.13;99413.14;5301322;54;1136944;-81
2024/03/29 13:44:25;;;;;;;1.92;0.93;;;;;;;17.76;41.55;99413.95;5320528;54;1136761;-84
2024/03/29 13:49:32;;;;;;;1.75;0.75;;;;;;;17.64;41.75;99420.02;5302007;54;1136575;-82
2024/03/29 13:54:39;;;;;;;1.87;0.80;;;;;;;17.53;42.15;99412.80;5301456;54;1136287;-83
2024/03/29 13:59:48;;;;;;;5.93;1.13;;;;;;;17.55;41.38;99401.41;5288592;54;1136717;-83
2024/03/29 14:04:54;;;;;;;2.40;1.10;;;;;;;17.43;39.25;99392.22;5209493;55;1167763;-82
2024/03/29 14:10:03;;;;;;;2.90;1.00;;;;;;;17.32;42.08;99402.08;5210335;55;1136544;-83
2024/03/29 14:15:08;;;;;;;32.70;24.43;;;;;;;17.16;41.02;99408.48;5259264;54;1136315;-82
2024/03/29 14:20:19;;;;;;;2.83;1.43;;;;;;;17.02;40.96;99381.30;5310120;54;1140850;-82
2024/03/29 14:25:24;;;;;;;1.57;0.90;;;;;;;17.02;41.07;99377.80;5295748;54;1136273;-83
2024/03/29 14:30:30;;;;;;;8.50;1.50;;;;;;;16.95;43.53;99373.73;5293898;54;1136539;-82
2024/03/29 14:35:37;;;;;;;4.63;1.60;;;;;;;16.91;41.75;99370.28;5202366;55;1136525;-82
2024/03/29 14:40:43;;;;;;;7.77;3.20;;;;;;;16.89;43.64;99363.79;5211174;55;1136325;-82
2024/03/29 14:45:49;;;;;;;2.97;1.10;;;;;;;16.88;44.46;99361.63;5231544;55;1136462;-83
2024/03/29 14:50:58;;;;;;;8.80;5.67;;;;;;;16.92;44.62;99353.24;5217302;54;1136612;-83
2024/03/29 14:56:04;;;;;;;2.37;1.43;;;;;;;16.98;45.69;99350.63;5300739;54;1136340;-83
2024/03/29 15:01:10;;;;;;;3.03;1.10;;;;;;;17.04;46.65;99340.53;5312750;54;1136531;-83
2024/03/29 15:06:16;;;;;;;6.87;1.73;;;;;;;16.98;44.14;99314.57;5298332;54;1136739;-83
2024/03/29 15:11:22;;;;;;;4.50;2.10;;;;;;;17.13;46.42;99339.39;5291305;54;1136785;-82
2024/03/29 15:16:31;;;;;;;4.90;3.23;;;;;;;17.17;45.06;99321.14;5293946;54;1136513;-83
2024/03/29 15:21:39;;;;;;;4.13;1.23;;;;;;;17.13;45.07;99292.63;5320833;54;1136518;-83
2024/03/29 15:26:45;;;;;;;11.37;9.10;;;;;;;17.09;42.91;99287.38;5310860;54;1136556;-82
2024/03/29 15:31:56;;;;;;;7.63;3.60;;;;;;;17.11;44.02;99287.98;5248089;54;1138932;-82
2024/03/29 15:37:01;;;;;;;6.30;2.03;;;;;;;17.07;44.80;99299.27;5241238;55;1136556;-81
2024/03/29 15:42:09;;;;;;;12.27;2.70;;;;;;;16.98;45.08;99302.55;5221310;55;1136391;-81
2024/03/29 15:47:15;;;;;;;63.40;44.13;;;;;;;16.88;44.53;99280.67;5220479;55;1138766;-83
2024/03/29 15:52:21;;;;;;;7.87;2.58;;;;;;;16.84;45.92;99274.88;5236200;54;1140477;-81
2024/03/29 15:57:27;;;;;;;3.62;2.47;;;;;;;16.83;46.32;99270.55;5238981;54;1136433;-83
2024/03/29 16:02:36;;;;;;;9.48;5.83;;;;;;;16.79;44.48;99281.83;5300626;54;1136859;-83
2024/03/29 16:07:42;;;;;;;8.53;5.10;;;;;;;16.76;46.07;99284.87;5215579;54;1136238;-82
2024/03/29 16:12:48;;;;;;;8.83;3.20;;;;;;;16.74;45.88;99280.22;5230707;55;1136721;-83
2024/03/29 16:17:54;;;;;;;8.30;4.63;;;;;;;16.73;47.42;99286.06;5210065;55;1136531;-81
2024/03/29 16:22:59;;;;;;;10.80;2.77;;;;;;;16.69;46.64;99271.94;5210300;55;1136458;-81
2024/03/29 16:28:17;;;;;;;11.67;3.67;;;;;;;16.66;47.05;99274.98;5230096;55;1138524;-81
2024/03/29 16:33:17;;;;;;;6.43;2.20;;;;;;;16.64;46.60;99275.70;5192785;55;1139051;-82
2024/03/29 16:38:24;;;;;;;4.78;3.27;;;;;;;16.64;47.53;99259.69;5080615;57;1136590;-78
2024/03/29 16:43:30;;;;;;;7.58;4.75;;;;;;;16.64;46.41;99255.68;5059499;56;1136642;-78
2024/03/29 16:48:35;;;;;;;10.87;6.67;;;;;;;16.63;47.69;99272.70;5096236;55;1136666;-77
2024/03/29 16:53:42;;;;;;;4.80;2.83;;;;;;;16.58;47.46;99263.89;5230594;55;1138846;-79
2024/03/29 16:58:48;;;;;;;2.73;2.27;;;;;;;16.53;46.83;99276.45;5239840;55;1136704;-82
2024/03/29 17:03:53;;;;;;;11.27;3.93;;;;;;;16.48;47.20;99278.88;5189889;55;1136659;-78
2024/03/29 17:08:59;;;;;;;2.17;1.80;;;;;;;16.43;47.72;99266.59;5183120;55;1138728;-84
2024/03/29 17:14:05;;;;;;;14.83;4.10;;;;;;;16.40;48.29;99276.80;5171588;55;1136673;-82
2024/03/29 17:19:11;;;;;;;19.90;6.03;;;;;;;16.35;48.27;99271.19;5217212;55;1138435;-80
2024/03/29 17:24:17;;;;;;;9.68;5.53;;;;;;;16.30;48.72;99270.94;5198423;55;1139060;-78
2024/03/29 17:29:23;;;;;;;3.53;2.10;;;;;;;16.23;48.61;99262.01;5293255;55;1136515;-77
2024/03/29 17:34:28;;;;;;;7.07;2.17;;;;;;;16.16;48.07;99265.44;5183251;55;1136461;-80
2024/03/29 17:39:34;;;;;;;11.80;5.70;;;;;;;16.12;49.57;99253.98;5164461;55;1136575;-79
2024/03/29 17:44:40;;;;;;;21.17;8.47;;;;;;;16.06;49.56;99248.05;5206514;55;1138837;-81
2024/03/29 17:49:47;;;;;;;7.30;2.93;;;;;;;16.03;50.59;99247.11;5194577;55;1138611;-81
2024/03/29 17:54:53;;;;;;;5.60;2.93;;;;;;;15.99;50.26;99254.64;5194804;55;1136506;-78
2024/03/29 18:00:01;;;;;;;23.30;13.33;;;;;;;15.94;50.16;99262.35;5184151;55;1136550;-79
2024/03/29 18:05:08;;;;;;;22.63;10.70;;;;;;;15.93;51.30;99274.53;5182301;55;1141005;-76
2024/03/29 18:10:15;;;;;;;21.07;10.47;;;;;;;15.89;50.67;99285.27;5194565;55;1141066;-80
2024/03/29 18:15:21;;;;;;;52.40;24.37;;;;;;;15.86;51.60;99298.95;5108622;56;1140807;-78
2024/03/29 18:20:27;;;;;;;59.63;27.83;;;;;;;15.80;51.38;99309.83;5166727;55;1140962;-81
2024/03/29 18:25:33;;;;;;;95.57;51.75;;;;;;;15.74;52.00;99314.04;5194739;55;1140853;-80
2024/03/29 18:30:42;;;;;;;37.33;20.60;;;;;;;15.72;52.46;99317.92;5185910;55;1140787;-78
2024/03/29 18:35:49;;;;;;;21.53;10.47;;;;;;;15.62;52.26;99303.50;5187562;55;1140741;-80
2024/03/29 18:40:54;;;;;;;23.23;10.13;;;;;;;15.64;52.76;99305.48;5177327;55;1140998;-79
2024/03/29 18:46:05;;;;;;;14.67;6.80;;;;;;;15.59;53.12;99300.36;5202612;55;1140995;-79
2024/03/29 18:51:11;;;;;;;100.33;35.20;;;;;;;15.54;53.29;99304.06;5235645;55;1138907;-78
2024/03/29 18:56:18;;;;;;;68.93;24.93;;;;;;;15.48;53.60;99298.94;5247567;54;1142850;-78
2024/03/29 19:01:24;;;;;;;130.13;44.63;;;;;;;15.41;54.03;99307.34;5229401;55;1140942;-80
2024/03/29 19:06:31;;;;;;;93.80;28.05;;;;;;;15.36;54.09;99299.05;5229066;55;1142746;-80
2024/03/29 19:11:36;;;;;;;215.67;67.93;;;;;;;15.30;54.82;99297.09;5228032;55;1140588;-77
2024/03/29 19:16:42;;;;;;;52.20;24.07;;;;;;;15.26;55.36;99286.48;5151601;55;1143307;-81
2024/03/29 19:21:54;;;;;;;107.40;48.93;;;;;;;15.22;55.50;99285.19;5152966;55;1140495;-81
2024/03/29 19:27:00;;;;;;;64.33;22.87;;;;;;;15.20;55.71;99295.18;5172717;55;1143004;-77
2024/03/29 19:32:06;;;;;;;92.83;33.20;;;;;;;15.15;55.77;99291.72;5146000;55;1140728;-81
2024/03/29 19:37:11;;;;;;;98.20;35.37;;;;;;;15.10;56.09;99298.92;5165657;55;1141211;-81
2024/03/29 19:42:17;;;;;;;35.55;13.90;;;;;;;15.06;56.29;99296.28;5217350;55;1140616;-78
2024/03/29 19:47:24;;;;;;;41.97;17.20;;;;;;;15.01;56.50;99300.47;5211095;55;1140722;-77
2024/03/29 19:52:30;;;;;;;87.92;36.10;;;;;;;14.97;57.08;99290.67;5018076;57;1140725;-77
2024/03/29 19:57:35;;;;;;;77.00;35.48;;;;;;;14.94;57.77;99295.55;5082605;57;1140964;-79
2024/03/29 20:02:41;;;;;;;40.70;15.87;;;;;;;14.90;58.14;99296.39;5041052;57;1141278;-81
2024/03/29 20:07:47;;;;;;;25.97;12.30;;;;;;;14.89;58.76;99297.39;5200637;55;1140437;-78
2024/03/29 20:12:52;;;;;;;30.57;12.20;;;;;;;14.87;59.35;99311.88;5217091;55;1140899;-80
2024/03/29 20:17:58;;;;;;;33.13;13.90;;;;;;;14.84;60.06;99317.55;5237317;55;1140887;-78
2024/03/29 20:23:07;;;;;;;55.53;24.33;;;;;;;14.81;60.97;99332.56;5213163;55;1140977;-79
2024/03/29 20:28:13;;;;;;;33.50;13.80;;;;;;;14.75;61.73;99344.23;5216955;55;1140975;-81
2024/03/29 20:33:19;;;;;;;23.02;9.88;;;;;;;14.70;62.45;99355.06;5163169;55;1140853;-81
2024/03/29 20:38:25;;;;;;;10.90;5.30;;;;;;;14.65;63.20;99358.27;5237690;55;1138694;-80
2024/03/29 20:43:31;;;;;;;44.53;19.07;;;;;;;14.59;63.87;99358.94;5197661;55;1138810;-79
2024/03/29 20:48:37;;;;;;;39.18;15.48;;;;;;;14.58;64.42;99362.60;5205544;55;1140878;-80
2024/03/29 20:53:43;;;;;;;31.33;13.73;;;;;;;14.56;66.02;99359.78;5227577;55;1140733;-77
2024/03/29 20:58:49;;;;;;;9.80;5.33;;;;;;;14.53;66.67;99371.59;5196100;55;1140791;-78
2024/03/29 21:09:18;;;;;;;8.53;4.72;;;;;;;14.46;67.85;99374.63;5178534;55;1138451;-80
2024/03/29 21:14:23;;;;;;;6.93;4.60;;;;;;;14.42;68.23;99370.14;5210181;54;1136791;-78
2024/03/29 21:19:29;;;;;;;8.74;4.56;;;;;;;14.37;68.62;99365.80;5136045;55;1136689;-79
2024/03/29 21:24:35;;;;;;;8.03;4.40;;;;;;;14.33;69.36;99366.33;5119773;55;1136183;-80
2024/03/29 21:29:40;;;;;;;9.20;4.73;;;;;;;14.28;69.57;99371.32;5173100;55;1136444;-80
2024/03/29 21:34:46;;;;;;;16.93;8.20;;;;;;;14.25;70.17;99372.48;5146001;55;1136287;-80
2024/03/29 21:39:52;;;;;;;21.50;8.93;;;;;;;14.22;71.09;99375.48;5184077;55;1138662;-81
2024/03/29 21:44:58;;;;;;;18.33;7.63;;;;;;;14.18;71.30;99374.19;5142136;55;1138668;-79
2024/03/29 21:50:04;;;;;;;9.87;4.97;;;;;;;14.18;71.92;99381.33;5240526;55;1138478;-79
2024/03/29 21:55:10;;;;;;;9.23;5.00;;;;;;;14.13;72.66;99394.30;5240983;55;1136517;-77
2024/03/29 22:00:16;;;;;;;9.50;4.77;;;;;;;14.08;73.20;99387.64;5231138;55;1136607;-79
2024/03/29 22:05:23;;;;;;;12.53;4.67;;;;;;;14.06;73.62;99389.64;5275589;55;1136707;-79
2024/03/29 22:10:28;;;;;;;17.35;5.12;;;;;;;14.05;74.13;99397.28;5231009;55;1138902;-79
2024/03/29 22:15:34;;;;;;;11.53;4.70;;;;;;;14.02;74.52;99409.61;5239223;55;1138711;-79
2024/03/29 22:20:40;;;;;;;11.00;5.00;;;;;;;13.99;75.32;99415.75;5261257;55;1138517;-79
2024/03/29 22:25:46;;;;;;;10.70;5.20;;;;;;;13.96;75.54;99409.44;5240204;55;1138573;-78
2024/03/29 22:30:52;;;;;;;9.47;4.73;;;;;;;13.94;75.89;99410.09;5214665;55;1138892;-79
2024/03/29 22:35:58;;;;;;;12.53;4.93;;;;;;;13.92;76.26;99407.60;5194742;55;1136761;-78
2024/03/29 22:41:03;;;;;;;10.03;4.93;;;;;;;13.92;76.50;99401.45;5225994;55;1138559;-78
2024/03/29 22:46:09;;;;;;;25.80;14.67;;;;;;;13.93;76.74;99404.45;5215375;55;1138540;-78
2024/03/29 22:51:15;;;;;;;18.50;7.27;;;;;;;13.92;77.08;99406.27;5206303;55;1140843;-78
2024/03/29 22:56:21;;;;;;;14.80;6.67;;;;;;;13.88;77.26;99400.16;5226610;55;1138617;-78
2024/03/29 23:01:26;;;;;;;14.70;7.17;;;;;;;13.88;77.64;99398.83;5205297;55;1139126;-78
2024/03/29 23:06:32;;;;;;;21.95;10.13;;;;;;;13.86;78.29;99404.30;5160489;55;1138760;-78
2024/03/29 23:11:38;;;;;;;23.70;12.83;;;;;;;13.84;78.88;99402.80;5112577;56;1140793;-78
2024/03/29 23:16:43;;;;;;;23.37;11.50;;;;;;;13.73;79.05;99403.98;5206313;55;1140553;-78
2024/03/29 23:21:49;;;;;;;32.83;12.83;;;;;;;13.67;79.47;99409.95;5206411;55;1140889;-78
2024/03/29 23:26:54;;;;;;;26.47;13.00;;;;;;;13.60;79.89;99416.41;5221223;55;1140629;-78
2024/03/29 23:32:00;;;;;;;26.10;10.53;;;;;;;13.51;80.34;99420.06;5206178;55;1140847;-78
2024/03/29 23:37:06;;;;;;;19.03;8.67;;;;;;;13.37;81.01;99418.89;5205007;55;1140584;-78